Terminal Aerodrome Forecast
Issued by NWS Topeka, KS

Home | Current Version | Previous Version | Text Only | Print | Product List | Glossary Off
Versions: 1 2 3 4 5 6 7 8 9 10 11 12 13 14 15 16 17 18 19 20 21 22 23

405
FTUS43 KTOP 290520
TAFTOP
TAF
KTOP 290520Z 2906/3006 02005KT P6SM SCT035 BKN080
     FM291500 05011KT P6SM VCTS FEW020CB BKN050
     FM292000 08013KT P6SM -RA VCTS SCT015CB BKN027=

USA.gov is the U.S. government's official web portal to all federal, state and local government web resources and services.